sensor_id;sensor_type;location;lat;lon;timestamp;pressure;altitude;pressure_sealevel;temperature;humidity
2563;BME280;1291;51.420;6.970;2023-05-25T00:00:20;100884.41;;;33.53;nan
2563;BME280;1291;51.420;6.970;2023-05-25T00:02:46;100881.34;;;33.27;nan
2563;BME280;1291;51.420;6.970;2023-05-25T00:05:12;100885.38;;;33.52;nan
2563;BME280;1291;51.420;6.970;2023-05-25T00:07:38;100890.28;;;32.77;nan
2563;BME280;1291;51.420;6.970;2023-05-25T00:10:04;100892.13;;;33.27;nan
2563;BME280;1291;51.420;6.970;2023-05-25T00:12:30;100885.38;;;33.52;nan
2563;BME280;1291;51.420;6.970;2023-05-25T00:14:56;100882.44;;;33.40;nan
2563;BME280;1291;51.420;6.970;2023-05-25T00:17:21;100884.41;;;33.03;nan
2563;BME280;1291;51.420;6.970;2023-05-25T00:19:48;100884.88;;;32.24;nan
2563;BME280;1291;51.420;6.970;2023-05-25T00:22:20;100880.16;;;33.48;nan
2563;BME280;1291;51.420;6.970;2023-05-25T00:24:46;100879.03;;;33.53;nan
2563;BME280;1291;51.420;6.970;2023-05-25T00:27:11;100878.75;;;33.08;nan
2563;BME280;1291;51.420;6.970;2023-05-25T00:29:36;100887.25;;;33.34;nan
2563;BME280;1291;51.420;6.970;2023-05-25T00:32:02;100870.97;;;33.53;nan
2563;BME280;1291;51.420;6.970;2023-05-25T00:34:27;100872.50;;;33.41;nan
2563;BME280;1291;51.420;6.970;2023-05-25T00:36:53;100872.38;;;33.26;nan
2563;BME280;1291;51.420;6.970;2023-05-25T00:39:19;100867.47;;;33.51;nan
2563;BME280;1291;51.420;6.970;2023-05-25T00:41:45;100870.75;;;33.40;nan
2563;BME280;1291;51.420;6.970;2023-05-25T00:44:12;100878.75;;;33.08;nan
2563;BME280;1291;51.420;6.970;2023-05-25T00:46:50;100874.00;;;32.80;nan
2563;BME280;1291;51.420;6.970;2023-05-25T00:49:20;100877.50;;;32.64;nan
2563;BME280;1291;51.420;6.970;2023-05-25T00:51:47;100872.25;;;32.79;nan
2563;BME280;1291;51.420;6.970;2023-05-25T00:54:16;100874.41;;;32.72;nan
2563;BME280;1291;51.420;6.970;2023-05-25T00:56:48;100879.97;;;33.02;nan
2563;BME280;1291;51.420;6.970;2023-05-25T00:59:22;100887.06;;;32.70;nan
2563;BME280;1291;51.420;6.970;2023-05-25T01:01:50;100877.34;;;33.18;nan
2563;BME280;1291;51.420;6.970;2023-05-25T01:04:20;100880.56;;;33.25;nan
2563;BME280;1291;51.420;6.970;2023-05-25T01:06:47;100884.22;;;33.06;nan
2563;BME280;1291;51.420;6.970;2023-05-25T01:09:16;100873.53;;;33.05;nan
2563;BME280;1291;51.420;6.970;2023-05-25T01:11:48;100878.63;;;33.11;nan
2563;BME280;1291;51.420;6.970;2023-05-25T01:14:19;100878.38;;;33.16;nan
2563;BME280;1291;51.420;6.970;2023-05-25T01:16:46;100880.75;;;33.04;nan
2563;BME280;1291;51.420;6.970;2023-05-25T01:19:11;100884.03;;;33.11;nan
2563;BME280;1291;51.420;6.970;2023-05-25T01:21:48;100883.13;;;32.93;nan
2563;BME280;1291;51.420;6.970;2023-05-25T01:27:14;100884.13;;;32.75;nan
2563;BME280;1291;51.420;6.970;2023-05-25T01:29:44;100888.69;;;32.38;nan
2563;BME280;1291;51.420;6.970;2023-05-25T01:32:11;100879.50;;;32.42;nan
2563;BME280;1291;51.420;6.970;2023-05-25T01:34:39;100880.16;;;32.47;nan
2563;BME280;1291;51.420;6.970;2023-05-25T01:37:05;100888.66;;;32.74;nan
2563;BME280;1291;51.420;6.970;2023-05-25T01:39:30;100881.69;;;33.21;nan
2563;BME280;1291;51.420;6.970;2023-05-25T01:41:56;100883.31;;;32.90;nan
2563;BME280;1291;51.420;6.970;2023-05-25T01:44:21;100891.38;;;32.55;nan
2563;BME280;1291;51.420;6.970;2023-05-25T01:46:52;100892.81;;;31.13;nan
2563;BME280;1291;51.420;6.970;2023-05-25T01:49:31;100885.47;;;32.48;nan
2563;BME280;1291;51.420;6.970;2023-05-25T01:54:43;100889.63;;;32.89;nan
2563;BME280;1291;51.420;6.970;2023-05-25T01:57:16;100898.19;;;32.27;nan
2563;BME280;1291;51.420;6.970;2023-05-25T01:59:43;100893.50;;;31.95;nan
2563;BME280;1291;51.420;6.970;2023-05-25T02:02:11;100890.91;;;32.47;nan
2563;BME280;1291;51.420;6.970;2023-05-25T02:04:37;100882.44;;;32.55;nan
2563;BME280;1291;51.420;6.970;2023-05-25T02:07:03;100886.25;;;31.40;nan
2563;BME280;1291;51.420;6.970;2023-05-25T02:09:31;100884.59;;;32.83;nan
2563;BME280;1291;51.420;6.970;2023-05-25T02:11:57;100884.09;;;33.09;nan
2563;BME280;1291;51.420;6.970;2023-05-25T02:14:22;100889.25;;;31.52;nan
2563;BME280;1291;51.420;6.970;2023-05-25T02:16:47;100894.34;;;32.14;nan
2563;BME280;1291;51.420;6.970;2023-05-25T02:19:16;100902.53;;;30.75;nan
2563;BME280;1291;51.420;6.970;2023-05-25T02:21:41;100901.75;;;29.86;nan
2563;BME280;1291;51.420;6.970;2023-05-25T02:24:06;100899.81;;;30.56;nan
2563;BME280;1291;51.420;6.970;2023-05-25T02:26:37;100900.53;;;31.21;nan
2563;BME280;1291;51.420;6.970;2023-05-25T02:29:04;100899.47;;;31.82;nan
2563;BME280;1291;51.420;6.970;2023-05-25T02:31:32;100910.22;;;30.42;nan
2563;BME280;1291;51.420;6.970;2023-05-25T02:33:57;100900.75;;;31.92;nan
2563;BME280;1291;51.420;6.970;2023-05-25T02:36:23;100898.34;;;32.42;nan
2563;BME280;1291;51.420;6.970;2023-05-25T02:38:48;100901.19;;;31.83;nan
2563;BME280;1291;51.420;6.970;2023-05-25T02:41:20;100903.31;;;31.58;nan
2563;BME280;1291;51.420;6.970;2023-05-25T02:43:46;100900.06;;;31.51;nan
2563;BME280;1291;51.420;6.970;2023-05-25T02:46:12;100908.19;;;31.10;nan
2563;BME280;1291;51.420;6.970;2023-05-25T02:48:37;100899.28;;;32.23;nan
2563;BME280;1291;51.420;6.970;2023-05-25T02:51:02;100899.00;;;31.16;nan
2563;BME280;1291;51.420;6.970;2023-05-25T02:53:28;100902.09;;;31.84;nan
2563;BME280;1291;51.420;6.970;2023-05-25T02:55:53;100899.59;;;31.79;nan
2563;BME280;1291;51.420;6.970;2023-05-25T02:58:19;100910.06;;;31.85;nan
2563;BME280;1291;51.420;6.970;2023-05-25T03:00:44;100907.47;;;31.84;nan
2563;BME280;1291;51.420;6.970;2023-05-25T03:03:10;100911.88;;;31.07;nan
2563;BME280;1291;51.420;6.970;2023-05-25T03:05:36;100919.50;;;31.17;nan
2563;BME280;1291;51.420;6.970;2023-05-25T03:08:02;100918.56;;;30.77;nan
2563;BME280;1291;51.420;6.970;2023-05-25T03:10:27;100910.34;;;31.79;nan
2563;BME280;1291;51.420;6.970;2023-05-25T03:12:53;100912.56;;;32.44;nan
2563;BME280;1291;51.420;6.970;2023-05-25T03:15:21;100906.53;;;32.21;nan
2563;BME280;1291;51.420;6.970;2023-05-25T03:17:47;100912.97;;;32.54;nan
2563;BME280;1291;51.420;6.970;2023-05-25T03:20:12;100909.72;;;32.29;nan
2563;BME280;1291;51.420;6.970;2023-05-25T03:22:42;100906.38;;;31.50;nan
2563;BME280;1291;51.420;6.970;2023-05-25T03:25:08;100911.78;;;32.42;nan
2563;BME280;1291;51.420;6.970;2023-05-25T03:27:36;100922.97;;;32.15;nan
2563;BME280;1291;51.420;6.970;2023-05-25T03:30:02;100923.78;;;32.17;nan
2563;BME280;1291;51.420;6.970;2023-05-25T03:32:27;100921.78;;;32.57;nan
2563;BME280;1291;51.420;6.970;2023-05-25T03:34:55;100923.56;;;31.46;nan
2563;BME280;1291;51.420;6.970;2023-05-25T03:37:21;100925.16;;;31.69;nan
2563;BME280;1291;51.420;6.970;2023-05-25T03:39:52;100928.53;;;32.29;nan
2563;BME280;1291;51.420;6.970;2023-05-25T03:42:17;100933.19;;;32.43;nan
2563;BME280;1291;51.420;6.970;2023-05-25T03:44:42;100930.75;;;32.39;nan
2563;BME280;1291;51.420;6.970;2023-05-25T03:47:08;100929.44;;;31.73;nan
2563;BME280;1291;51.420;6.970;2023-05-25T03:49:33;100931.69;;;32.38;nan
2563;BME280;1291;51.420;6.970;2023-05-25T03:51:58;100932.97;;;33.00;nan
2563;BME280;1291;51.420;6.970;2023-05-25T03:54:25;100932.34;;;32.43;nan
2563;BME280;1291;51.420;6.970;2023-05-25T03:56:50;100936.63;;;31.91;nan
2563;BME280;1291;51.420;6.970;2023-05-25T03:59:16;100944.06;;;32.05;nan
2563;BME280;1291;51.420;6.970;2023-05-25T04:01:42;100946.88;;;32.39;nan
2563;BME280;1291;51.420;6.970;2023-05-25T04:04:07;100947.59;;;32.06;nan
2563;BME280;1291;51.420;6.970;2023-05-25T04:06:33;100953.78;;;31.70;nan
2563;BME280;1291;51.420;6.970;2023-05-25T04:09:02;100955.88;;;32.38;nan
2563;BME280;1291;51.420;6.970;2023-05-25T04:11:28;100959.13;;;31.89;nan
2563;BME280;1291;51.420;6.970;2023-05-25T04:13:57;100961.66;;;31.73;nan
2563;BME280;1291;51.420;6.970;2023-05-25T04:16:23;100965.22;;;31.55;nan
2563;BME280;1291;51.420;6.970;2023-05-25T04:18:50;100971.69;;;32.44;nan
2563;BME280;1291;51.420;6.970;2023-05-25T04:21:15;100971.56;;;30.92;nan
2563;BME280;1291;51.420;6.970;2023-05-25T04:23:41;100963.59;;;32.09;nan
2563;BME280;1291;51.420;6.970;2023-05-25T04:26:07;100967.63;;;31.40;nan
2563;BME280;1291;51.420;6.970;2023-05-25T04:28:34;100962.09;;;32.57;nan
2563;BME280;1291;51.420;6.970;2023-05-25T04:31:04;100967.25;;;33.14;nan
2563;BME280;1291;51.420;6.970;2023-05-25T04:33:29;100960.13;;;32.24;nan
2563;BME280;1291;51.420;6.970;2023-05-25T04:35:55;100965.09;;;31.17;nan
2563;BME280;1291;51.420;6.970;2023-05-25T04:38:23;100962.56;;;30.93;nan
2563;BME280;1291;51.420;6.970;2023-05-25T04:40:51;100960.13;;;31.48;nan
2563;BME280;1291;51.420;6.970;2023-05-25T04:43:18;100967.25;;;31.08;nan
2563;BME280;1291;51.420;6.970;2023-05-25T04:45:44;100961.53;;;31.37;nan
2563;BME280;1291;51.420;6.970;2023-05-25T04:48:12;100958.69;;;31.00;nan
2563;BME280;1291;51.420;6.970;2023-05-25T04:50:38;100966.34;;;31.09;nan
2563;BME280;1291;51.420;6.970;2023-05-25T04:53:07;100970.28;;;31.21;nan
2563;BME280;1291;51.420;6.970;2023-05-25T04:55:32;100984.22;;;30.22;nan
2563;BME280;1291;51.420;6.970;2023-05-25T04:58:00;100983.84;;;31.58;nan
2563;BME280;1291;51.420;6.970;2023-05-25T05:00:26;100987.50;;;30.95;nan
2563;BME280;1291;51.420;6.970;2023-05-25T05:02:55;100985.09;;;31.09;nan
2563;BME280;1291;51.420;6.970;2023-05-25T05:05:21;100989.41;;;32.48;nan
2563;BME280;1291;51.420;6.970;2023-05-25T05:07:46;101005.91;;;30.16;nan
2563;BME280;1291;51.420;6.970;2023-05-25T05:10:12;100999.09;;;30.73;nan
2563;BME280;1291;51.420;6.970;2023-05-25T05:12:37;100997.31;;;32.15;nan
2563;BME280;1291;51.420;6.970;2023-05-25T05:15:06;101007.41;;;30.23;nan
2563;BME280;1291;51.420;6.970;2023-05-25T05:17:31;101010.00;;;30.48;nan
2563;BME280;1291;51.420;6.970;2023-05-25T05:19:57;101006.69;;;33.15;nan
2563;BME280;1291;51.420;6.970;2023-05-25T05:22:22;101012.47;;;31.18;nan
2563;BME280;1291;51.420;6.970;2023-05-25T05:24:47;101019.03;;;30.46;nan
2563;BME280;1291;51.420;6.970;2023-05-25T05:27:14;101008.66;;;32.21;nan
2563;BME280;1291;51.420;6.970;2023-05-25T05:29:39;101009.25;;;32.09;nan
2563;BME280;1291;51.420;6.970;2023-05-25T05:32:05;101013.66;;;32.29;nan
2563;BME280;1291;51.420;6.970;2023-05-25T05:34:31;101024.53;;;32.81;nan
2563;BME280;1291;51.420;6.970;2023-05-25T05:36:56;101022.53;;;32.67;nan
2563;BME280;1291;51.420;6.970;2023-05-25T05:39:25;101034.31;;;30.66;nan
2563;BME280;1291;51.420;6.970;2023-05-25T05:41:51;101039.56;;;30.23;nan
2563;BME280;1291;51.420;6.970;2023-05-25T05:44:16;101046.13;;;30.38;nan
2563;BME280;1291;51.420;6.970;2023-05-25T05:46:41;101040.78;;;30.82;nan
2563;BME280;1291;51.420;6.970;2023-05-25T05:49:07;101038.41;;;30.97;nan
2563;BME280;1291;51.420;6.970;2023-05-25T05:51:32;101049.91;;;30.56;nan
2563;BME280;1291;51.420;6.970;2023-05-25T05:53:57;101051.75;;;30.30;nan
2563;BME280;1291;51.420;6.970;2023-05-25T05:56:22;101053.56;;;31.18;nan
2563;BME280;1291;51.420;6.970;2023-05-25T05:58:48;101055.16;;;30.58;nan
2563;BME280;1291;51.420;6.970;2023-05-25T06:01:15;101049.13;;;31.38;nan
2563;BME280;1291;51.420;6.970;2023-05-25T06:03:42;101054.50;;;31.38;nan
2563;BME280;1291;51.420;6.970;2023-05-25T06:06:07;101053.25;;;31.26;nan
2563;BME280;1291;51.420;6.970;2023-05-25T06:08:32;101050.81;;;32.00;nan
2563;BME280;1291;51.420;6.970;2023-05-25T06:10:57;101043.41;;;31.47;nan
2563;BME280;1291;51.420;6.970;2023-05-25T06:13:23;101037.59;;;32.53;nan
2563;BME280;1291;51.420;6.970;2023-05-25T06:15:48;101042.78;;;31.20;nan
2563;BME280;1291;51.420;6.970;2023-05-25T06:18:13;101048.28;;;31.58;nan
2563;BME280;1291;51.420;6.970;2023-05-25T06:20:39;101058.69;;;32.05;nan
2563;BME280;1291;51.420;6.970;2023-05-25T06:23:04;101050.31;;;31.92;nan
2563;BME280;1291;51.420;6.970;2023-05-25T06:25:29;101053.72;;;31.96;nan
2563;BME280;1291;51.420;6.970;2023-05-25T06:27:55;101050.84;;;32.19;nan
2563;BME280;1291;51.420;6.970;2023-05-25T06:30:21;101057.94;;;31.41;nan
2563;BME280;1291;51.420;6.970;2023-05-25T06:32:46;101048.97;;;31.42;nan
2563;BME280;1291;51.420;6.970;2023-05-25T06:35:11;101056.19;;;32.94;nan
2563;BME280;1291;51.420;6.970;2023-05-25T06:37:46;101049.16;;;34.10;nan
2563;BME280;1291;51.420;6.970;2023-05-25T06:40:13;101056.66;;;32.10;nan
2563;BME280;1291;51.420;6.970;2023-05-25T06:42:39;101066.22;;;30.94;nan
2563;BME280;1291;51.420;6.970;2023-05-25T06:45:06;101070.34;;;32.80;nan
2563;BME280;1291;51.420;6.970;2023-05-25T06:47:31;101077.16;;;30.89;nan
2563;BME280;1291;51.420;6.970;2023-05-25T06:49:57;101077.56;;;31.01;nan
2563;BME280;1291;51.420;6.970;2023-05-25T06:52:22;101072.91;;;33.53;nan
2563;BME280;1291;51.420;6.970;2023-05-25T06:54:47;101075.94;;;33.29;nan
2563;BME280;1291;51.420;6.970;2023-05-25T06:57:13;101082.56;;;33.57;nan
2563;BME280;1291;51.420;6.970;2023-05-25T06:59:38;101082.69;;;34.04;nan
2563;BME280;1291;51.420;6.970;2023-05-25T07:02:03;101087.03;;;33.40;nan
2563;BME280;1291;51.420;6.970;2023-05-25T07:04:29;101081.44;;;33.61;nan
2563;BME280;1291;51.420;6.970;2023-05-25T07:06:54;101077.66;;;33.13;nan
2563;BME280;1291;51.420;6.970;2023-05-25T07:09:19;101090.28;;;32.38;nan
2563;BME280;1291;51.420;6.970;2023-05-25T07:11:46;101090.16;;;33.83;nan
2563;BME280;1291;51.420;6.970;2023-05-25T07:14:11;101093.03;;;32.36;nan
2563;BME280;1291;51.420;6.970;2023-05-25T07:16:37;101088.81;;;33.22;nan
2563;BME280;1291;51.420;6.970;2023-05-25T07:19:02;101092.25;;;32.15;nan
2563;BME280;1291;51.420;6.970;2023-05-25T07:21:30;101089.84;;;33.55;nan
2563;BME280;1291;51.420;6.970;2023-05-25T07:23:57;101087.22;;;32.26;nan
2563;BME280;1291;51.420;6.970;2023-05-25T07:26:22;101097.25;;;32.04;nan
2563;BME280;1291;51.420;6.970;2023-05-25T07:28:49;101096.19;;;32.27;nan
2563;BME280;1291;51.420;6.970;2023-05-25T07:31:15;101098.31;;;31.79;nan
2563;BME280;1291;51.420;6.970;2023-05-25T07:33:41;101096.03;;;33.39;nan
2563;BME280;1291;51.420;6.970;2023-05-25T07:36:07;101098.56;;;32.14;nan
2563;BME280;1291;51.420;6.970;2023-05-25T07:38:33;101097.25;;;32.42;nan
2563;BME280;1291;51.420;6.970;2023-05-25T07:40:59;101097.63;;;33.43;nan
2563;BME280;1291;51.420;6.970;2023-05-25T07:43:24;101103.84;;;34.12;nan
2563;BME280;1291;51.420;6.970;2023-05-25T07:45:49;101106.00;;;33.72;nan
2563;BME280;1291;51.420;6.970;2023-05-25T07:48:15;101105.44;;;33.99;nan
2563;BME280;1291;51.420;6.970;2023-05-25T07:50:40;101101.72;;;33.85;nan
2563;BME280;1291;51.420;6.970;2023-05-25T07:53:05;101112.91;;;33.78;nan
2563;BME280;1291;51.420;6.970;2023-05-25T07:55:31;101107.66;;;33.57;nan
2563;BME280;1291;51.420;6.970;2023-05-25T07:57:56;101110.97;;;35.09;nan
2563;BME280;1291;51.420;6.970;2023-05-25T08:00:21;101115.47;;;32.73;nan
2563;BME280;1291;51.420;6.970;2023-05-25T08:02:47;101112.34;;;33.19;nan
2563;BME280;1291;51.420;6.970;2023-05-25T08:05:13;101110.75;;;33.67;nan
2563;BME280;1291;51.420;6.970;2023-05-25T08:07:41;101113.88;;;34.42;nan
2563;BME280;1291;51.420;6.970;2023-05-25T08:10:07;101119.16;;;33.26;nan
2563;BME280;1291;51.420;6.970;2023-05-25T08:12:33;101118.84;;;31.39;nan
2563;BME280;1291;51.420;6.970;2023-05-25T08:14:58;101111.28;;;32.67;nan
2563;BME280;1291;51.420;6.970;2023-05-25T08:17:23;101113.75;;;33.26;nan
2563;BME280;1291;51.420;6.970;2023-05-25T08:19:49;101117.31;;;32.73;nan
2563;BME280;1291;51.420;6.970;2023-05-25T08:22:14;101112.25;;;34.55;nan
2563;BME280;1291;51.420;6.970;2023-05-25T08:24:39;101121.13;;;33.22;nan
2563;BME280;1291;51.420;6.970;2023-05-25T08:27:05;101115.34;;;33.47;nan
2563;BME280;1291;51.420;6.970;2023-05-25T08:29:33;101119.06;;;33.80;nan
2563;BME280;1291;51.420;6.970;2023-05-25T08:31:58;101116.50;;;35.37;nan
2563;BME280;1291;51.420;6.970;2023-05-25T08:34:24;101118.66;;;33.87;nan
2563;BME280;1291;51.420;6.970;2023-05-25T08:36:49;101119.19;;;32.89;nan
2563;BME280;1291;51.420;6.970;2023-05-25T08:39:15;101124.13;;;32.80;nan
2563;BME280;1291;51.420;6.970;2023-05-25T08:41:48;101134.84;;;33.70;nan
2563;BME280;1291;51.420;6.970;2023-05-25T08:44:14;101133.75;;;33.74;nan
2563;BME280;1291;51.420;6.970;2023-05-25T08:46:40;101131.69;;;33.27;nan
2563;BME280;1291;51.420;6.970;2023-05-25T08:49:15;101137.97;;;35.24;nan
2563;BME280;1291;51.420;6.970;2023-05-25T08:51:45;101143.00;;;31.39;nan
2563;BME280;1291;51.420;6.970;2023-05-25T08:54:23;101132.25;;;32.97;nan
2563;BME280;1291;51.420;6.970;2023-05-25T08:57:19;101144.72;;;31.20;nan
2563;BME280;1291;51.420;6.970;2023-05-25T08:59:52;101133.38;;;34.47;nan
2563;BME280;1291;51.420;6.970;2023-05-25T09:05:26;101142.91;;;32.62;nan
2563;BME280;1291;51.420;6.970;2023-05-25T09:07:52;101137.44;;;32.45;nan
2563;BME280;1291;51.420;6.970;2023-05-25T09:10:19;101124.34;;;36.01;nan
2563;BME280;1291;51.420;6.970;2023-05-25T09:12:48;101131.81;;;34.27;nan
2563;BME280;1291;51.420;6.970;2023-05-25T09:15:15;101138.38;;;34.71;nan
2563;BME280;1291;51.420;6.970;2023-05-25T09:17:41;101136.56;;;33.54;nan
2563;BME280;1291;51.420;6.970;2023-05-25T09:20:09;101136.34;;;33.04;nan
2563;BME280;1291;51.420;6.970;2023-05-25T09:22:39;101140.16;;;33.37;nan
2563;BME280;1291;51.420;6.970;2023-05-25T09:25:06;101151.09;;;32.40;nan
2563;BME280;1291;51.420;6.970;2023-05-25T09:27:34;101152.78;;;30.75;nan
2563;BME280;1291;51.420;6.970;2023-05-25T09:30:04;101145.34;;;31.48;nan
2563;BME280;1291;51.420;6.970;2023-05-25T09:32:30;101150.97;;;31.63;nan
2563;BME280;1291;51.420;6.970;2023-05-25T09:35:05;101158.25;;;31.17;nan
2563;BME280;1291;51.420;6.970;2023-05-25T09:37:31;101153.53;;;33.21;nan
2563;BME280;1291;51.420;6.970;2023-05-25T09:39:56;101151.59;;;32.48;nan
2563;BME280;1291;51.420;6.970;2023-05-25T09:42:22;101156.91;;;31.06;nan
2563;BME280;1291;51.420;6.970;2023-05-25T09:44:48;101161.63;;;32.45;nan
2563;BME280;1291;51.420;6.970;2023-05-25T09:47:13;101161.97;;;30.68;nan
2563;BME280;1291;51.420;6.970;2023-05-25T09:49:41;101155.00;;;33.96;nan
2563;BME280;1291;51.420;6.970;2023-05-25T09:52:08;101166.47;;;30.91;nan
2563;BME280;1291;51.420;6.970;2023-05-25T09:54:35;101164.84;;;31.93;nan
2563;BME280;1291;51.420;6.970;2023-05-25T09:57:02;101168.19;;;30.47;nan
2563;BME280;1291;51.420;6.970;2023-05-25T09:59:29;101172.25;;;32.86;nan
2563;BME280;1291;51.420;6.970;2023-05-25T10:01:55;101171.25;;;31.70;nan
2563;BME280;1291;51.420;6.970;2023-05-25T10:04:20;101169.91;;;35.32;nan
2563;BME280;1291;51.420;6.970;2023-05-25T10:06:47;101167.16;;;33.87;nan
2563;BME280;1291;51.420;6.970;2023-05-25T10:09:17;101185.13;;;32.60;nan
2563;BME280;1291;51.420;6.970;2023-05-25T10:11:43;101183.75;;;33.43;nan
2563;BME280;1291;51.420;6.970;2023-05-25T10:14:11;101186.69;;;33.21;nan
2563;BME280;1291;51.420;6.970;2023-05-25T10:16:39;101184.84;;;33.03;nan
2563;BME280;1291;51.420;6.970;2023-05-25T10:19:11;101189.31;;;33.23;nan
2563;BME280;1291;51.420;6.970;2023-05-25T10:21:43;101183.94;;;33.40;nan
2563;BME280;1291;51.420;6.970;2023-05-25T10:24:43;101179.09;;;33.47;nan
2563;BME280;1291;51.420;6.970;2023-05-25T10:27:10;101179.31;;;34.61;nan
2563;BME280;1291;51.420;6.970;2023-05-25T10:29:38;101183.06;;;34.43;nan
2563;BME280;1291;51.420;6.970;2023-05-25T10:32:04;101181.75;;;33.66;nan
2563;BME280;1291;51.420;6.970;2023-05-25T10:34:30;101190.88;;;31.28;nan
2563;BME280;1291;51.420;6.970;2023-05-25T10:36:57;101180.38;;;32.65;nan
2563;BME280;1291;51.420;6.970;2023-05-25T10:39:23;101190.34;;;34.07;nan
2563;BME280;1291;51.420;6.970;2023-05-25T10:41:50;101191.50;;;33.68;nan
2563;BME280;1291;51.420;6.970;2023-05-25T10:44:17;101191.41;;;33.87;nan
2563;BME280;1291;51.420;6.970;2023-05-25T10:46:43;101194.63;;;32.67;nan
2563;BME280;1291;51.420;6.970;2023-05-25T10:49:09;101188.34;;;33.24;nan
2563;BME280;1291;51.420;6.970;2023-05-25T10:51:47;101184.69;;;34.45;nan
2563;BME280;1291;51.420;6.970;2023-05-25T10:54:21;101185.78;;;32.26;nan
2563;BME280;1291;51.420;6.970;2023-05-25T10:57:19;101187.91;;;32.19;nan
2563;BME280;1291;51.420;6.970;2023-05-25T10:59:49;101189.97;;;31.51;nan
2563;BME280;1291;51.420;6.970;2023-05-25T11:02:16;101185.25;;;33.68;nan
2563;BME280;1291;51.420;6.970;2023-05-25T11:04:47;101183.72;;;31.50;nan
2563;BME280;1291;51.420;6.970;2023-05-25T11:07:14;101177.31;;;33.65;nan
2563;BME280;1291;51.420;6.970;2023-05-25T11:09:42;101187.22;;;31.73;nan
2563;BME280;1291;51.420;6.970;2023-05-25T11:12:20;101191.84;;;32.10;nan
2563;BME280;1291;51.420;6.970;2023-05-25T11:15:12;101183.22;;;31.19;nan
2563;BME280;1291;51.420;6.970;2023-05-25T11:17:45;101181.38;;;34.07;nan
2563;BME280;1291;51.420;6.970;2023-05-25T11:20:22;101183.16;;;33.38;nan
2563;BME280;1291;51.420;6.970;2023-05-25T11:22:49;101170.91;;;34.18;nan
2563;BME280;1291;51.420;6.970;2023-05-25T11:28:02;101155.91;;;36.85;nan
2563;BME280;1291;51.420;6.970;2023-05-25T11:30:28;101158.44;;;33.82;nan
2563;BME280;1291;51.420;6.970;2023-05-25T11:32:54;101159.38;;;33.29;nan
2563;BME280;1291;51.420;6.970;2023-05-25T11:35:24;101159.66;;;34.10;nan
2563;BME280;1291;51.420;6.970;2023-05-25T11:37:50;101156.00;;;34.44;nan
2563;BME280;1291;51.420;6.970;2023-05-25T11:40:21;101149.22;;;34.85;nan
2563;BME280;1291;51.420;6.970;2023-05-25T11:42:46;101138.97;;;36.40;nan
2563;BME280;1291;51.420;6.970;2023-05-25T11:45:15;101159.22;;;33.49;nan
2563;BME280;1291;51.420;6.970;2023-05-25T11:47:40;101146.25;;;35.21;nan
2563;BME280;1291;51.420;6.970;2023-05-25T11:50:06;101136.13;;;37.77;nan
2563;BME280;1291;51.420;6.970;2023-05-25T11:52:32;101152.72;;;33.19;nan
2563;BME280;1291;51.420;6.970;2023-05-25T11:54:58;101146.25;;;34.58;nan
2563;BME280;1291;51.420;6.970;2023-05-25T11:57:24;101142.72;;;33.91;nan
2563;BME280;1291;51.420;6.970;2023-05-25T12:00:09;101142.28;;;33.65;nan
2563;BME280;1291;51.420;6.970;2023-05-25T12:02:40;101146.22;;;32.48;nan
2563;BME280;1291;51.420;6.970;2023-05-25T12:05:08;101148.25;;;35.18;nan
2563;BME280;1291;51.420;6.970;2023-05-25T12:07:34;101143.78;;;35.77;nan
2563;BME280;1291;51.420;6.970;2023-05-25T12:10:09;101144.63;;;33.88;nan
2563;BME280;1291;51.420;6.970;2023-05-25T12:12:42;101138.88;;;35.39;nan
2563;BME280;1291;51.420;6.970;2023-05-25T12:15:09;101145.19;;;32.13;nan
2563;BME280;1291;51.420;6.970;2023-05-25T12:17:40;101146.50;;;32.80;nan
2563;BME280;1291;51.420;6.970;2023-05-25T12:20:06;101140.19;;;34.54;nan
2563;BME280;1291;51.420;6.970;2023-05-25T12:22:32;101132.78;;;34.90;nan
2563;BME280;1291;51.420;6.970;2023-05-25T12:24:58;101123.28;;;34.98;nan
2563;BME280;1291;51.420;6.970;2023-05-25T12:27:24;101125.09;;;36.46;nan
2563;BME280;1291;51.420;6.970;2023-05-25T12:29:50;101126.16;;;35.56;nan
2563;BME280;1291;51.420;6.970;2023-05-25T12:32:17;101125.66;;;36.22;nan
2563;BME280;1291;51.420;6.970;2023-05-25T12:34:44;101127.44;;;35.20;nan
2563;BME280;1291;51.420;6.970;2023-05-25T12:37:19;101129.69;;;35.12;nan
2563;BME280;1291;51.420;6.970;2023-05-25T12:39:47;101122.44;;;35.58;nan
2563;BME280;1291;51.420;6.970;2023-05-25T12:42:14;101127.56;;;34.39;nan
2563;BME280;1291;51.420;6.970;2023-05-25T12:44:41;101117.41;;;36.53;nan
2563;BME280;1291;51.420;6.970;2023-05-25T12:49:38;101109.84;;;37.39;nan
2563;BME280;1291;51.420;6.970;2023-05-25T12:52:05;101118.22;;;36.82;nan
2563;BME280;1291;51.420;6.970;2023-05-25T12:54:44;101106.34;;;36.43;nan
2563;BME280;1291;51.420;6.970;2023-05-25T12:57:15;101102.22;;;37.72;nan
2563;BME280;1291;51.420;6.970;2023-05-25T12:59:45;101110.09;;;35.08;nan
2563;BME280;1291;51.420;6.970;2023-05-25T13:02:11;101119.53;;;35.01;nan
2563;BME280;1291;51.420;6.970;2023-05-25T13:04:38;101102.25;;;35.50;nan
2563;BME280;1291;51.420;6.970;2023-05-25T13:07:06;101110.28;;;36.66;nan
2563;BME280;1291;51.420;6.970;2023-05-25T13:09:34;101108.09;;;35.12;nan
2563;BME280;1291;51.420;6.970;2023-05-25T13:12:00;101103.38;;;34.69;nan
2563;BME280;1291;51.420;6.970;2023-05-25T13:14:27;101100.38;;;36.79;nan
2563;BME280;1291;51.420;6.970;2023-05-25T13:16:55;101095.97;;;36.91;nan
2563;BME280;1291;51.420;6.970;2023-05-25T13:19:23;101094.28;;;34.72;nan
2563;BME280;1291;51.420;6.970;2023-05-25T13:21:49;101083.25;;;36.09;nan
2563;BME280;1291;51.420;6.970;2023-05-25T13:24:19;101095.38;;;34.83;nan
2563;BME280;1291;51.420;6.970;2023-05-25T13:26:45;101086.91;;;37.84;nan
2563;BME280;1291;51.420;6.970;2023-05-25T13:29:11;101095.19;;;33.90;nan
2563;BME280;1291;51.420;6.970;2023-05-25T13:31:37;101091.28;;;36.39;nan
2563;BME280;1291;51.420;6.970;2023-05-25T13:34:02;101092.22;;;36.52;nan
2563;BME280;1291;51.420;6.970;2023-05-25T13:36:28;101088.72;;;36.65;nan
2563;BME280;1291;51.420;6.970;2023-05-25T13:38:54;101089.31;;;37.63;nan
2563;BME280;1291;51.420;6.970;2023-05-25T13:41:20;101083.50;;;37.93;nan
2563;BME280;1291;51.420;6.970;2023-05-25T13:43:45;101080.47;;;36.39;nan
2563;BME280;1291;51.420;6.970;2023-05-25T13:46:12;101080.34;;;35.10;nan